sensor_id;sensor_type;location;lat;lon;timestamp;pressure;altitude;pressure_sealevel;temperature;humidity
6395;BME280;3230;42.588;23.358;2023-02-18T00:01:31;91691.91;;;2.06;80.70
6395;BME280;3230;42.588;23.358;2023-02-18T00:03:58;91689.56;;;1.98;81.39
6395;BME280;3230;42.588;23.358;2023-02-18T00:06:30;91694.91;;;2.03;81.33
6395;BME280;3230;42.588;23.358;2023-02-18T00:08:56;91683.97;;;2.01;80.36
6395;BME280;3230;42.588;23.358;2023-02-18T00:11:23;91684.41;;;1.91;82.22
6395;BME280;3230;42.588;23.358;2023-02-18T00:13:54;91677.28;;;1.86;83.13
6395;BME280;3230;42.588;23.358;2023-02-18T00:16:21;91666.50;;;1.96;83.40
6395;BME280;3230;42.588;23.358;2023-02-18T00:18:47;91674.06;;;1.98;81.48
6395;BME280;3230;42.588;23.358;2023-02-18T00:21:12;91663.28;;;2.01;82.26
6395;BME280;3230;42.588;23.358;2023-02-18T00:23:38;91667.69;;;2.00;80.87
6395;BME280;3230;42.588;23.358;2023-02-18T00:26:07;91660.13;;;1.99;80.13
6395;BME280;3230;42.588;23.358;2023-02-18T00:28:33;91659.75;;;1.95;79.79
6395;BME280;3230;42.588;23.358;2023-02-18T00:31:04;91647.59;;;2.02;80.78
6395;BME280;3230;42.588;23.358;2023-02-18T00:33:30;91652.38;;;1.99;80.23
6395;BME280;3230;42.588;23.358;2023-02-18T00:36:01;91649.13;;;2.10;78.60
6395;BME280;3230;42.588;23.358;2023-02-18T00:38:26;91623.91;;;2.05;78.83
6395;BME280;3230;42.588;23.358;2023-02-18T00:40:52;91626.69;;;2.04;80.29
6395;BME280;3230;42.588;23.358;2023-02-18T00:43:17;91629.84;;;2.13;80.62
6395;BME280;3230;42.588;23.358;2023-02-18T00:45:43;91612.28;;;2.21;77.06
6395;BME280;3230;42.588;23.358;2023-02-18T00:48:08;91621.47;;;2.17;79.29
6395;BME280;3230;42.588;23.358;2023-02-18T00:50:33;91613.53;;;2.12;80.47
6395;BME280;3230;42.588;23.358;2023-02-18T00:52:59;91617.34;;;2.03;79.26
6395;BME280;3230;42.588;23.358;2023-02-18T00:55:24;91614.44;;;1.92;79.23
6395;BME280;3230;42.588;23.358;2023-02-18T00:57:50;91620.38;;;2.00;77.78
6395;BME280;3230;42.588;23.358;2023-02-18T01:00:15;91622.69;;;2.08;76.97
6395;BME280;3230;42.588;23.358;2023-02-18T01:02:41;91627.28;;;2.06;76.57
6395;BME280;3230;42.588;23.358;2023-02-18T01:05:06;91617.50;;;2.08;78.99
6395;BME280;3230;42.588;23.358;2023-02-18T01:13:16;91627.22;;;2.19;73.01
6395;BME280;3230;42.588;23.358;2023-02-18T01:15:42;91622.63;;;2.21;73.73
6395;BME280;3230;42.588;23.358;2023-02-18T01:18:08;91620.63;;;2.23;77.19
6395;BME280;3230;42.588;23.358;2023-02-18T01:20:38;91621.06;;;2.14;77.93
6395;BME280;3230;42.588;23.358;2023-02-18T01:23:04;91623.69;;;2.07;78.00
6395;BME280;3230;42.588;23.358;2023-02-18T01:25:29;91620.69;;;2.10;78.44
6395;BME280;3230;42.588;23.358;2023-02-18T01:27:55;91612.53;;;2.13;76.70
6395;BME280;3230;42.588;23.358;2023-02-18T01:30:20;91611.94;;;2.11;76.43
6395;BME280;3230;42.588;23.358;2023-02-18T01:32:46;91606.19;;;2.41;74.97
6395;BME280;3230;42.588;23.358;2023-02-18T01:35:14;91624.41;;;2.53;74.68
6395;BME280;3230;42.588;23.358;2023-02-18T01:37:40;91628.69;;;2.34;75.83
6395;BME280;3230;42.588;23.358;2023-02-18T01:40:07;91613.09;;;2.15;76.85
6395;BME280;3230;42.588;23.358;2023-02-18T01:42:33;91613.34;;;2.07;78.37
6395;BME280;3230;42.588;23.358;2023-02-18T01:48:16;91617.97;;;1.98;79.53
6395;BME280;3230;42.588;23.358;2023-02-18T01:50:46;91622.75;;;1.95;80.93
6395;BME280;3230;42.588;23.358;2023-02-18T01:53:19;91625.16;;;1.89;81.74
6395;BME280;3230;42.588;23.358;2023-02-18T01:55:47;91615.09;;;1.74;82.01
6395;BME280;3230;42.588;23.358;2023-02-18T01:58:13;91617.09;;;1.72;82.20
6395;BME280;3230;42.588;23.358;2023-02-18T02:00:39;91623.88;;;1.67;82.69
6395;BME280;3230;42.588;23.358;2023-02-18T02:03:05;91623.91;;;1.60;82.79
6395;BME280;3230;42.588;23.358;2023-02-18T02:05:32;91629.31;;;1.45;84.05
6395;BME280;3230;42.588;23.358;2023-02-18T02:07:59;91646.00;;;1.49;83.54
6395;BME280;3230;42.588;23.358;2023-02-18T02:13:40;91631.69;;;1.40;83.12
6395;BME280;3230;42.588;23.358;2023-02-18T02:16:14;91638.50;;;1.34;83.47
6395;BME280;3230;42.588;23.358;2023-02-18T02:24:46;91633.91;;;1.30;85.96
6395;BME280;3230;42.588;23.358;2023-02-18T02:30:16;91607.50;;;1.34;85.80
6395;BME280;3230;42.588;23.358;2023-02-18T02:33:07;91619.22;;;1.37;85.38
6395;BME280;3230;42.588;23.358;2023-02-18T02:41:31;91611.84;;;1.34;85.57
6395;BME280;3230;42.588;23.358;2023-02-18T02:44:35;91610.09;;;1.27;85.91
6395;BME280;3230;42.588;23.358;2023-02-18T02:47:14;91606.13;;;1.32;85.97
6395;BME280;3230;42.588;23.358;2023-02-18T02:49:49;91610.25;;;1.33;86.28
6395;BME280;3230;42.588;23.358;2023-02-18T02:52:30;91602.94;;;1.30;86.76
6395;BME280;3230;42.588;23.358;2023-02-18T02:54:56;91596.97;;;1.29;86.78
6395;BME280;3230;42.588;23.358;2023-02-18T02:59:51;91600.19;;;1.24;87.07
6395;BME280;3230;42.588;23.358;2023-02-18T03:02:48;91588.84;;;1.25;87.61
6395;BME280;3230;42.588;23.358;2023-02-18T03:05:35;91601.34;;;1.28;88.17
6395;BME280;3230;42.588;23.358;2023-02-18T03:08:07;91588.81;;;1.32;86.93
6395;BME280;3230;42.588;23.358;2023-02-18T03:10:49;91594.38;;;1.29;87.20
6395;BME280;3230;42.588;23.358;2023-02-18T03:24:04;91623.50;;;1.56;84.31
6395;BME280;3230;42.588;23.358;2023-02-18T03:26:33;91631.22;;;1.63;83.12
6395;BME280;3230;42.588;23.358;2023-02-18T03:29:04;91637.97;;;1.71;81.68
6395;BME280;3230;42.588;23.358;2023-02-18T03:31:33;91626.59;;;1.85;79.84
6395;BME280;3230;42.588;23.358;2023-02-18T03:34:12;91641.88;;;1.87;79.41
6395;BME280;3230;42.588;23.358;2023-02-18T03:36:41;91631.88;;;1.97;78.92
6395;BME280;3230;42.588;23.358;2023-02-18T03:39:10;91642.28;;;1.90;79.30
6395;BME280;3230;42.588;23.358;2023-02-18T03:41:38;91646.03;;;1.95;79.67
6395;BME280;3230;42.588;23.358;2023-02-18T03:44:05;91655.19;;;1.90;80.69
6395;BME280;3230;42.588;23.358;2023-02-18T03:46:32;91656.63;;;1.80;80.65
6395;BME280;3230;42.588;23.358;2023-02-18T03:48:58;91658.44;;;1.79;80.55
6395;BME280;3230;42.588;23.358;2023-02-18T03:51:24;91657.00;;;1.83;81.12
6395;BME280;3230;42.588;23.358;2023-02-18T03:53:49;91653.44;;;1.84;80.84
6395;BME280;3230;42.588;23.358;2023-02-18T03:56:16;91662.28;;;2.02;78.87
6395;BME280;3230;42.588;23.358;2023-02-18T03:58:41;91672.06;;;1.93;80.83
6395;BME280;3230;42.588;23.358;2023-02-18T04:01:07;91664.94;;;1.88;81.28
6395;BME280;3230;42.588;23.358;2023-02-18T04:03:32;91671.75;;;1.76;81.43
6395;BME280;3230;42.588;23.358;2023-02-18T04:05:58;91667.38;;;1.70;83.21
6395;BME280;3230;42.588;23.358;2023-02-18T04:08:24;91661.03;;;1.72;83.33
6395;BME280;3230;42.588;23.358;2023-02-18T04:10:50;91655.13;;;1.58;84.34
6395;BME280;3230;42.588;23.358;2023-02-18T04:13:16;91660.88;;;1.54;85.12
6395;BME280;3230;42.588;23.358;2023-02-18T04:15:43;91650.75;;;1.46;85.86
6395;BME280;3230;42.588;23.358;2023-02-18T04:18:08;91638.06;;;1.44;85.99
6395;BME280;3230;42.588;23.358;2023-02-18T04:20:33;91645.22;;;1.42;85.91
6395;BME280;3230;42.588;23.358;2023-02-18T04:22:59;91630.88;;;1.46;85.48
6395;BME280;3230;42.588;23.358;2023-02-18T04:25:24;91635.63;;;1.56;84.45
6395;BME280;3230;42.588;23.358;2023-02-18T04:27:50;91637.84;;;1.52;84.72
6395;BME280;3230;42.588;23.358;2023-02-18T04:30:15;91631.47;;;1.55;85.16
6395;BME280;3230;42.588;23.358;2023-02-18T04:32:40;91629.69;;;1.55;85.09
6395;BME280;3230;42.588;23.358;2023-02-18T04:35:06;97224.09;;;1.63;83.34
6395;BME280;3230;42.588;23.358;2023-02-18T04:37:31;91626.44;;;1.67;83.73
6395;BME280;3230;42.588;23.358;2023-02-18T04:39:57;91631.63;;;1.67;83.81
6395;BME280;3230;42.588;23.358;2023-02-18T04:42:22;91622.06;;;1.74;82.58
6395;BME280;3230;42.588;23.358;2023-02-18T04:44:47;91631.16;;;1.83;81.74
6395;BME280;3230;42.588;23.358;2023-02-18T04:47:13;91633.34;;;1.86;82.29
6395;BME280;3230;42.588;23.358;2023-02-18T04:49:38;91629.94;;;1.92;80.29
6395;BME280;3230;42.588;23.358;2023-02-18T04:52:04;91634.50;;;1.90;81.38
6395;BME280;3230;42.588;23.358;2023-02-18T04:54:29;91629.13;;;1.92;81.25
6395;BME280;3230;42.588;23.358;2023-02-18T04:56:55;91623.75;;;1.94;82.49
6395;BME280;3230;42.588;23.358;2023-02-18T04:59:20;91633.13;;;1.88;83.78
6395;BME280;3230;42.588;23.358;2023-02-18T05:01:46;91624.66;;;2.13;77.81
6395;BME280;3230;42.588;23.358;2023-02-18T05:04:11;91625.41;;;2.20;78.91
6395;BME280;3230;42.588;23.358;2023-02-18T05:06:36;91631.13;;;2.29;80.01
6395;BME280;3230;42.588;23.358;2023-02-18T05:09:04;91621.00;;;2.27;80.12
6395;BME280;3230;42.588;23.358;2023-02-18T05:11:30;91639.63;;;2.36;78.22
6395;BME280;3230;42.588;23.358;2023-02-18T05:13:55;91638.41;;;2.45;76.38
6395;BME280;3230;42.588;23.358;2023-02-18T05:16:20;91640.91;;;2.59;73.16
6395;BME280;3230;42.588;23.358;2023-02-18T05:18:46;91648.41;;;2.67;76.36
6395;BME280;3230;42.588;23.358;2023-02-18T05:21:11;91659.97;;;2.64;75.61
6395;BME280;3230;42.588;23.358;2023-02-18T05:23:36;91647.25;;;2.88;71.84
6395;BME280;3230;42.588;23.358;2023-02-18T05:26:02;91641.56;;;2.79;73.15
6395;BME280;3230;42.588;23.358;2023-02-18T05:28:28;91648.19;;;2.68;76.44
6395;BME280;3230;42.588;23.358;2023-02-18T05:30:53;91645.75;;;2.74;77.01
6395;BME280;3230;42.588;23.358;2023-02-18T05:33:19;91642.41;;;2.73;74.69
6395;BME280;3230;42.588;23.358;2023-02-18T05:35:44;91647.94;;;2.77;76.93
6395;BME280;3230;42.588;23.358;2023-02-18T05:38:09;91653.75;;;2.72;76.74
6395;BME280;3230;42.588;23.358;2023-02-18T05:40:36;91649.56;;;2.71;76.73
6395;BME280;3230;42.588;23.358;2023-02-18T05:43:01;91643.25;;;2.67;79.43
6395;BME280;3230;42.588;23.358;2023-02-18T05:45:26;91637.69;;;2.63;81.20
6395;BME280;3230;42.588;23.358;2023-02-18T05:47:52;91637.84;;;2.68;80.97
6395;BME280;3230;42.588;23.358;2023-02-18T05:50:17;91629.75;;;2.83;79.25
6395;BME280;3230;42.588;23.358;2023-02-18T05:52:43;91649.50;;;3.03;76.65
6395;BME280;3230;42.588;23.358;2023-02-18T05:55:08;91642.00;;;3.20;74.32
6395;BME280;3230;42.588;23.358;2023-02-18T05:57:33;91643.81;;;3.38;72.24
6395;BME280;3230;42.588;23.358;2023-02-18T05:59:59;91645.66;;;3.56;71.61
6395;BME280;3230;42.588;23.358;2023-02-18T06:02:24;91654.78;;;3.77;71.02
6395;BME280;3230;42.588;23.358;2023-02-18T06:04:49;91654.34;;;3.80;74.81
6395;BME280;3230;42.588;23.358;2023-02-18T06:07:15;91652.34;;;4.01;71.92
6395;BME280;3230;42.588;23.358;2023-02-18T06:09:40;91665.91;;;4.34;64.52
6395;BME280;3230;42.588;23.358;2023-02-18T06:12:06;91656.72;;;4.50;61.74
6395;BME280;3230;42.588;23.358;2023-02-18T06:14:31;91668.31;;;4.89;58.73
6395;BME280;3230;42.588;23.358;2023-02-18T06:16:57;91670.53;;;5.40;54.07
6395;BME280;3230;42.588;23.358;2023-02-18T06:19:22;91659.31;;;5.39;66.31
6395;BME280;3230;42.588;23.358;2023-02-18T06:21:48;91659.44;;;5.56;67.55
6395;BME280;3230;42.588;23.358;2023-02-18T06:24:13;91654.22;;;5.92;60.57
6395;BME280;3230;42.588;23.358;2023-02-18T06:26:39;91657.00;;;6.26;54.71
6395;BME280;3230;42.588;23.358;2023-02-18T06:29:04;91660.41;;;6.72;50.41
6395;BME280;3230;42.588;23.358;2023-02-18T06:31:29;91665.34;;;6.86;54.33
6395;BME280;3230;42.588;23.358;2023-02-18T06:33:55;91660.28;;;6.96;60.66
6395;BME280;3230;42.588;23.358;2023-02-18T06:36:20;91655.78;;;7.09;60.42
6395;BME280;3230;42.588;23.358;2023-02-18T06:38:46;91654.00;;;7.09;60.93
6395;BME280;3230;42.588;23.358;2023-02-18T06:41:12;91658.09;;;7.22;59.64
6395;BME280;3230;42.588;23.358;2023-02-18T06:43:38;91660.78;;;7.27;57.67
6395;BME280;3230;42.588;23.358;2023-02-18T06:46:04;91660.59;;;7.51;53.45
6395;BME280;3230;42.588;23.358;2023-02-18T06:48:31;91658.94;;;7.62;55.27
6395;BME280;3230;42.588;23.358;2023-02-18T06:50:56;91659.25;;;7.65;55.33
6395;BME280;3230;42.588;23.358;2023-02-18T06:53:22;91659.44;;;7.42;55.43
6395;BME280;3230;42.588;23.358;2023-02-18T06:55:48;91661.38;;;7.68;54.40
6395;BME280;3230;42.588;23.358;2023-02-18T06:58:13;91652.28;;;7.71;54.84
6395;BME280;3230;42.588;23.358;2023-02-18T07:00:39;91646.59;;;7.96;54.44
6395;BME280;3230;42.588;23.358;2023-02-18T07:03:06;91659.16;;;7.99;55.28
6395;BME280;3230;42.588;23.358;2023-02-18T07:05:31;91647.50;;;8.07;53.11
6395;BME280;3230;42.588;23.358;2023-02-18T07:07:57;91650.91;;;8.30;53.43
6395;BME280;3230;42.588;23.358;2023-02-18T07:10:22;91647.59;;;8.57;49.33
6395;BME280;3230;42.588;23.358;2023-02-18T07:12:48;91653.31;;;8.81;45.51
6395;BME280;3230;42.588;23.358;2023-02-18T07:15:13;91660.91;;;9.10;45.42
6395;BME280;3230;42.588;23.358;2023-02-18T07:17:39;91653.44;;;9.29;44.57
6395;BME280;3230;42.588;23.358;2023-02-18T07:20:05;91650.94;;;9.44;43.50
6395;BME280;3230;42.588;23.358;2023-02-18T07:22:32;91643.81;;;9.35;50.14
6395;BME280;3230;42.588;23.358;2023-02-18T07:24:57;91638.81;;;9.28;54.73
6395;BME280;3230;42.588;23.358;2023-02-18T07:27:22;91633.50;;;9.55;54.56
6395;BME280;3230;42.588;23.358;2023-02-18T07:29:48;91638.31;;;9.74;48.08
6395;BME280;3230;42.588;23.358;2023-02-18T07:32:15;61022.06;;;10.22;100.00
6395;BME280;3230;42.588;23.358;2023-02-18T07:34:41;61022.06;;;-147.60;100.00
6395;BME280;3230;42.588;23.358;2023-02-18T07:37:06;61022.06;;;-147.60;100.00
6395;BME280;3230;42.588;23.358;2023-02-18T07:39:41;61022.06;;;-147.60;100.00
6395;BME280;3230;42.588;23.358;2023-02-18T07:42:06;61022.06;;;-147.60;100.00
6395;BME280;3230;42.588;23.358;2023-02-18T07:44:32;61022.06;;;-147.60;100.00
6395;BME280;3230;42.588;23.358;2023-02-18T07:46:58;61022.06;;;-147.60;100.00
6395;BME280;3230;42.588;23.358;2023-02-18T07:49:24;61022.06;;;-147.60;100.00
6395;BME280;3230;42.588;23.358;2023-02-18T07:51:49;61022.06;;;-147.60;100.00
6395;BME280;3230;42.588;23.358;2023-02-18T07:54:15;61022.06;;;-147.60;100.00
6395;BME280;3230;42.588;23.358;2023-02-18T07:56:42;61022.06;;;-147.60;100.00
6395;BME280;3230;42.588;23.358;2023-02-18T07:59:08;61022.06;;;-147.60;100.00
6395;BME280;3230;42.588;23.358;2023-02-18T08:01:34;61022.06;;;-147.60;100.00
6395;BME280;3230;42.588;23.358;2023-02-18T08:03:59;61022.06;;;-147.60;100.00
6395;BME280;3230;42.588;23.358;2023-02-18T08:06:30;61022.06;;;-147.60;100.00
6395;BME280;3230;42.588;23.358;2023-02-18T08:08:57;61022.06;;;-147.60;100.00
6395;BME280;3230;42.588;23.358;2023-02-18T08:11:23;61022.06;;;-147.60;100.00
6395;BME280;3230;42.588;23.358;2023-02-18T08:13:48;61022.06;;;-147.60;100.00
6395;BME280;3230;42.588;23.358;2023-02-18T08:16:15;61022.06;;;-147.60;100.00
6395;BME280;3230;42.588;23.358;2023-02-18T08:18:41;61022.06;;;-147.60;100.00
6395;BME280;3230;42.588;23.358;2023-02-18T08:21:07;61022.06;;;-147.60;100.00
6395;BME280;3230;42.588;23.358;2023-02-18T08:23:32;61022.06;;;-147.60;100.00
6395;BME280;3230;42.588;23.358;2023-02-18T08:25:57;61022.06;;;-147.60;100.00
6395;BME280;3230;42.588;23.358;2023-02-18T08:28:23;61022.06;;;-147.60;100.00
6395;BME280;3230;42.588;23.358;2023-02-18T08:30:51;61022.06;;;-147.60;100.00
6395;BME280;3230;42.588;23.358;2023-02-18T08:33:18;61022.06;;;-147.60;100.00
6395;BME280;3230;42.588;23.358;2023-02-18T08:35:45;61022.06;;;-147.60;100.00
6395;BME280;3230;42.588;23.358;2023-02-18T08:38:10;61022.06;;;-147.60;100.00
6395;BME280;3230;42.588;23.358;2023-02-18T08:40:36;61022.06;;;-147.60;100.00
6395;BME280;3230;42.588;23.358;2023-02-18T08:43:01;61022.06;;;-147.60;100.00
6395;BME280;3230;42.588;23.358;2023-02-18T08:45:27;61022.06;;;-147.60;100.00
6395;BME280;3230;42.588;23.358;2023-02-18T08:47:52;61022.06;;;-147.60;100.00
6395;BME280;3230;42.588;23.358;2023-02-18T08:50:18;61022.06;;;-147.60;100.00
6395;BME280;3230;42.588;23.358;2023-02-18T08:52:46;61022.06;;;-147.60;100.00
6395;BME280;3230;42.588;23.358;2023-02-18T08:55:11;61022.06;;;-147.60;100.00
6395;BME280;3230;42.588;23.358;2023-02-18T08:57:37;61022.06;;;-147.60;100.00
6395;BME280;3230;42.588;23.358;2023-02-18T09:00:03;61022.06;;;-147.60;100.00
6395;BME280;3230;42.588;23.358;2023-02-18T09:02:30;61022.06;;;-147.60;100.00
6395;BME280;3230;42.588;23.358;2023-02-18T09:04:56;61022.06;;;-147.60;100.00
6395;BME280;3230;42.588;23.358;2023-02-18T09:07:21;61022.06;;;-147.60;100.00
6395;BME280;3230;42.588;23.358;2023-02-18T09:09:46;61022.06;;;-147.60;100.00
6395;BME280;3230;42.588;23.358;2023-02-18T09:12:12;61022.06;;;-147.60;100.00
6395;BME280;3230;42.588;23.358;2023-02-18T09:14:37;61022.06;;;-147.60;100.00
6395;BME280;3230;42.588;23.358;2023-02-18T09:17:03;61022.06;;;-147.60;100.00
6395;BME280;3230;42.588;23.358;2023-02-18T09:19:28;61022.06;;;-147.60;100.00
6395;BME280;3230;42.588;23.358;2023-02-18T09:21:54;61022.06;;;-147.60;100.00
6395;BME280;3230;42.588;23.358;2023-02-18T09:24:21;61022.06;;;-147.60;100.00
6395;BME280;3230;42.588;23.358;2023-02-18T09:26:49;61022.06;;;-147.60;100.00
6395;BME280;3230;42.588;23.358;2023-02-18T09:29:14;61022.06;;;-147.60;100.00
6395;BME280;3230;42.588;23.358;2023-02-18T09:31:40;61022.06;;;-147.60;100.00
6395;BME280;3230;42.588;23.358;2023-02-18T09:34:05;61022.06;;;-147.60;100.00
6395;BME280;3230;42.588;23.358;2023-02-18T09:36:31;61022.06;;;-147.60;100.00
6395;BME280;3230;42.588;23.358;2023-02-18T09:38:57;61022.06;;;-147.60;100.00
6395;BME280;3230;42.588;23.358;2023-02-18T09:41:47;61022.06;;;-147.60;100.00
6395;BME280;3230;42.588;23.358;2023-02-18T09:44:24;61022.06;;;-147.60;100.00
6395;BME280;3230;42.588;23.358;2023-02-18T09:47:01;61022.06;;;-147.60;44.24
6395;BME280;3230;42.588;23.358;2023-02-18T09:49:30;91634.88;;;11.42;42.45
6395;BME280;3230;42.588;23.358;2023-02-18T09:52:05;91639.34;;;11.46;41.07
6395;BME280;3230;42.588;23.358;2023-02-18T09:54:35;61022.06;;;-147.60;100.00
6395;BME280;3230;42.588;23.358;2023-02-18T09:57:00;61022.06;;;-147.60;100.00
6395;BME280;3230;42.588;23.358;2023-02-18T09:59:28;61022.06;;;-147.60;100.00
6395;BME280;3230;42.588;23.358;2023-02-18T10:01:55;61022.06;;;-147.60;100.00
6395;BME280;3230;42.588;23.358;2023-02-18T10:04:27;61022.06;;;-147.60;100.00
6395;BME280;3230;42.588;23.358;2023-02-18T10:06:57;61022.06;;;-147.60;100.00
6395;BME280;3230;42.588;23.358;2023-02-18T10:09:31;61022.06;;;-147.60;100.00
6395;BME280;3230;42.588;23.358;2023-02-18T10:12:23;61022.06;;;-147.60;100.00
6395;BME280;3230;42.588;23.358;2023-02-18T10:14:53;61022.06;;;-147.60;100.00
6395;BME280;3230;42.588;23.358;2023-02-18T10:17:20;61022.06;;;-147.60;100.00
6395;BME280;3230;42.588;23.358;2023-02-18T10:19:49;91636.97;;;11.19;41.23
6395;BME280;3230;42.588;23.358;2023-02-18T10:22:16;91623.84;;;12.52;38.23
6395;BME280;3230;42.588;23.358;2023-02-18T10:24:49;91624.66;;;12.52;39.03
6395;BME280;3230;42.588;23.358;2023-02-18T10:27:27;91627.41;;;12.16;39.38
6395;BME280;3230;42.588;23.358;2023-02-18T10:29:54;91635.03;;;12.18;40.07
6395;BME280;3230;42.588;23.358;2023-02-18T10:32:23;91632.69;;;12.11;39.01
6395;BME280;3230;42.588;23.358;2023-02-18T10:51:55;91607.69;;;12.24;39.94
6395;BME280;3230;42.588;23.358;2023-02-18T10:54:25;91605.56;;;12.26;39.60
6395;BME280;3230;42.588;23.358;2023-02-18T10:56:52;91607.28;;;12.56;39.43
6395;BME280;3230;42.588;23.358;2023-02-18T10:59:24;91600.34;;;12.76;39.44
6395;BME280;3230;42.588;23.358;2023-02-18T11:02:14;91591.66;;;12.75;39.07
6395;BME280;3230;42.588;23.358;2023-02-18T11:04:43;91604.06;;;13.09;40.81
6395;BME280;3230;42.588;23.358;2023-02-18T11:07:21;91600.88;;;13.18;39.21
6395;BME280;3230;42.588;23.358;2023-02-18T11:09:54;91588.63;;;12.98;38.19
6395;BME280;3230;42.588;23.358;2023-02-18T11:14:48;91604.25;;;12.84;38.11
6395;BME280;3230;42.588;23.358;2023-02-18T11:19:51;91596.63;;;13.22;38.45
6395;BME280;3230;42.588;23.358;2023-02-18T11:22:27;91591.31;;;13.27;37.90
6395;BME280;3230;42.588;23.358;2023-02-18T11:24:58;91588.69;;;13.62;36.87
6395;BME280;3230;42.588;23.358;2023-02-18T11:32:40;91576.38;;;13.17;37.31
6395;BME280;3230;42.588;23.358;2023-02-18T11:35:05;91561.63;;;13.21;37.58
6395;BME280;3230;42.588;23.358;2023-02-18T11:37:32;91559.66;;;13.37;36.01
6395;BME280;3230;42.588;23.358;2023-02-18T11:39:58;91564.47;;;13.25;35.47
6395;BME280;3230;42.588;23.358;2023-02-18T11:42:25;91553.69;;;13.26;36.21
6395;BME280;3230;42.588;23.358;2023-02-18T11:44:53;91549.38;;;13.41;36.33
6395;BME280;3230;42.588;23.358;2023-02-18T11:47:23;91539.63;;;13.41;36.97
6395;BME280;3230;42.588;23.358;2023-02-18T11:50:24;91540.59;;;13.51;37.81
6395;BME280;3230;42.588;23.358;2023-02-18T11:52:50;91529.06;;;13.71;36.40
6395;BME280;3230;42.588;23.358;2023-02-18T11:55:27;91525.59;;;13.75;36.56
6395;BME280;3230;42.588;23.358;2023-02-18T11:57:57;91522.63;;;13.58;36.61
6395;BME280;3230;42.588;23.358;2023-02-18T12:00:28;91523.50;;;13.48;36.70
6395;BME280;3230;42.588;23.358;2023-02-18T12:02:57;91514.06;;;13.71;36.94
6395;BME280;3230;42.588;23.358;2023-02-18T12:05:27;91512.28;;;13.86;37.23
6395;BME280;3230;42.588;23.358;2023-02-18T12:08:04;91505.69;;;14.13;36.14
6395;BME280;3230;42.588;23.358;2023-02-18T12:10:41;91498.13;;;14.25;36.12
6395;BME280;3230;42.588;23.358;2023-02-18T12:22:04;91491.00;;;14.83;35.06
6395;BME280;3230;42.588;23.358;2023-02-18T12:27:47;91497.06;;;14.83;35.76
6395;BME280;3230;42.588;23.358;2023-02-18T12:30:25;91496.25;;;14.64;36.34
6395;BME280;3230;42.588;23.358;2023-02-18T12:41:16;91500.66;;;15.07;34.58
6395;BME280;3230;42.588;23.358;2023-02-18T13:06:28;91469.81;;;14.88;38.54
6395;BME280;3230;42.588;23.358;2023-02-18T13:12:19;91468.78;;;15.03;39.73
6395;BME280;3230;42.588;23.358;2023-02-18T13:14:57;91462.97;;;15.20;39.51
6395;BME280;3230;42.588;23.358;2023-02-18T13:17:26;91467.84;;;15.27;39.68
6395;BME280;3230;42.588;23.358;2023-02-18T13:19:57;91464.91;;;15.28;39.50
6395;BME280;3230;42.588;23.358;2023-02-18T13:22:26;91468.16;;;15.39;39.68
6395;BME280;3230;42.588;23.358;2023-02-18T13:24:54;91470.13;;;15.47;39.32
6395;BME280;3230;42.588;23.358;2023-02-18T13:27:32;91462.00;;;15.44;39.09
6395;BME280;3230;42.588;23.358;2023-02-18T13:33:00;91465.72;;;15.43;38.17
6395;BME280;3230;42.588;23.358;2023-02-18T13:40:41;91470.03;;;15.39;36.99
6395;BME280;3230;42.588;23.358;2023-02-18T13:43:31;91467.19;;;15.21;37.72
6395;BME280;3230;42.588;23.358;2023-02-18T13:48:38;91468.25;;;15.20;37.62
6395;BME280;3230;42.588;23.358;2023-02-18T13:51:04;91460.38;;;15.01;38.05
6395;BME280;3230;42.588;23.358;2023-02-18T13:53:41;91458.41;;;14.93;37.43
6395;BME280;3230;42.588;23.358;2023-02-18T13:58:48;91458.06;;;14.80;38.51
6395;BME280;3230;42.588;23.358;2023-02-18T14:01:21;91446.53;;;14.57;38.75
6395;BME280;3230;42.588;23.358;2023-02-18T14:03:51;91451.03;;;14.57;38.07
6395;BME280;3230;42.588;23.358;2023-02-18T14:06:30;91438.31;;;14.59;37.91
6395;BME280;3230;42.588;23.358;2023-02-18T14:11:48;91449.13;;;14.43;39.02
6395;BME280;3230;42.588;23.358;2023-02-18T14:22:51;91441.84;;;14.35;39.11
6395;BME280;3230;42.588;23.358;2023-02-18T14:27:49;91457.88;;;14.19;39.21
6395;BME280;3230;42.588;23.358;2023-02-18T14:30:19;91455.69;;;14.46;38.44
6395;BME280;3230;42.588;23.358;2023-02-18T14:32:50;91446.50;;;14.43;38.35
6395;BME280;3230;42.588;23.358;2023-02-18T14:35:45;91454.75;;;14.36;40.02
6395;BME280;3230;42.588;23.358;2023-02-18T14:46:38;91457.50;;;13.39;40.62
6395;BME280;3230;42.588;23.358;2023-02-18T14:51:47;91462.81;;;12.75;41.52
6395;BME280;3230;42.588;23.358;2023-02-18T14:54:16;91463.38;;;12.72;42.05
6395;BME280;3230;42.588;23.358;2023-02-18T14:56:55;91451.38;;;12.61;42.18
6395;BME280;3230;42.588;23.358;2023-02-18T14:59:22;91452.28;;;12.46;42.82
6395;BME280;3230;42.588;23.358;2023-02-18T15:01:53;91440.66;;;12.52;42.74
6395;BME280;3230;42.588;23.358;2023-02-18T15:04:19;91443.63;;;12.40;43.30
6395;BME280;3230;42.588;23.358;2023-02-18T15:06:45;91439.75;;;12.32;42.87
6395;BME280;3230;42.588;23.358;2023-02-18T15:09:18;91433.41;;;12.34;43.05
6395;BME280;3230;42.588;23.358;2023-02-18T15:11:59;91420.78;;;11.91;44.66
6395;BME280;3230;42.588;23.358;2023-02-18T15:16:56;91440.81;;;11.76;45.01
6395;BME280;3230;42.588;23.358;2023-02-18T15:19:28;91446.31;;;11.85;44.63
6395;BME280;3230;42.588;23.358;2023-02-18T15:21:56;91437.66;;;11.79;44.64
6395;BME280;3230;42.588;23.358;2023-02-18T15:24:33;91454.06;;;11.50;46.78
6395;BME280;3230;42.588;23.358;2023-02-18T15:27:11;91437.31;;;11.41;46.32
6395;BME280;3230;42.588;23.358;2023-02-18T15:29:38;91435.75;;;11.40;46.54
6395;BME280;3230;42.588;23.358;2023-02-18T15:32:27;91436.34;;;11.11;47.09
6395;BME280;3230;42.588;23.358;2023-02-18T15:34:55;91434.25;;;11.03;47.92
6395;BME280;3230;42.588;23.358;2023-02-18T15:37:22;91428.50;;;10.96;47.97
6395;BME280;3230;42.588;23.358;2023-02-18T15:39:47;91423.28;;;10.85;48.34
6395;BME280;3230;42.588;23.358;2023-02-18T15:44:55;91414.91;;;10.68;48.41
6395;BME280;3230;42.588;23.358;2023-02-18T15:47:21;91418.09;;;10.44;49.26
6395;BME280;3230;42.588;23.358;2023-02-18T15:49:55;91421.19;;;10.36;51.98
6395;BME280;3230;42.588;23.358;2023-02-18T15:52:25;91414.13;;;10.21;54.43
6395;BME280;3230;42.588;23.358;2023-02-18T15:54:51;91424.06;;;10.19;55.84